sensor_id;sensor_type;location;lat;lon;timestamp;temperature;humidity
2054;DHT22;1032;52.542;13.440;2023-01-08T00:00:51;10.00;99.90
2054;DHT22;1032;52.542;13.440;2023-01-08T00:03:18;10.30;99.90
2054;DHT22;1032;52.542;13.440;2023-01-08T00:05:44;10.10;99.90
2054;DHT22;1032;52.542;13.440;2023-01-08T00:08:11;10.00;99.90
2054;DHT22;1032;52.542;13.440;2023-01-08T00:10:38;10.00;99.90
2054;DHT22;1032;52.542;13.440;2023-01-08T00:13:06;9.80;99.90
2054;DHT22;1032;52.542;13.440;2023-01-08T00:15:33;10.10;99.90
2054;DHT22;1032;52.542;13.440;2023-01-08T00:18:00;10.00;99.90
2054;DHT22;1032;52.542;13.440;2023-01-08T00:20:27;10.20;99.90
2054;DHT22;1032;52.542;13.440;2023-01-08T00:22:54;10.00;99.90
2054;DHT22;1032;52.542;13.440;2023-01-08T00:25:21;9.70;99.90
2054;DHT22;1032;52.542;13.440;2023-01-08T00:27:47;10.00;99.90
2054;DHT22;1032;52.542;13.440;2023-01-08T00:30:15;9.80;99.90
2054;DHT22;1032;52.542;13.440;2023-01-08T00:32:42;9.80;99.90
2054;DHT22;1032;52.542;13.440;2023-01-08T00:35:09;9.70;99.90
2054;DHT22;1032;52.542;13.440;2023-01-08T00:37:35;9.90;99.90
2054;DHT22;1032;52.542;13.440;2023-01-08T00:40:02;10.30;99.90
2054;DHT22;1032;52.542;13.440;2023-01-08T00:42:29;9.70;99.90
2054;DHT22;1032;52.542;13.440;2023-01-08T00:44:55;9.70;99.90
2054;DHT22;1032;52.542;13.440;2023-01-08T00:47:23;9.50;99.90
2054;DHT22;1032;52.542;13.440;2023-01-08T00:49:50;9.70;99.90
2054;DHT22;1032;52.542;13.440;2023-01-08T00:52:17;10.10;99.90
2054;DHT22;1032;52.542;13.440;2023-01-08T00:54:43;9.70;99.90
2054;DHT22;1032;52.542;13.440;2023-01-08T00:57:10;9.10;99.90
2054;DHT22;1032;52.542;13.440;2023-01-08T00:59:36;9.40;99.90
2054;DHT22;1032;52.542;13.440;2023-01-08T01:02:03;9.50;99.90
2054;DHT22;1032;52.542;13.440;2023-01-08T01:04:31;9.50;99.90
2054;DHT22;1032;52.542;13.440;2023-01-08T01:06:57;9.30;99.90
2054;DHT22;1032;52.542;13.440;2023-01-08T01:09:24;9.60;99.90
2054;DHT22;1032;52.542;13.440;2023-01-08T01:11:51;9.90;99.90
2054;DHT22;1032;52.542;13.440;2023-01-08T01:14:17;9.10;99.90
2054;DHT22;1032;52.542;13.440;2023-01-08T01:16:44;9.30;99.90
2054;DHT22;1032;52.542;13.440;2023-01-08T01:19:13;9.40;99.90
2054;DHT22;1032;52.542;13.440;2023-01-08T01:21:41;9.40;99.90
2054;DHT22;1032;52.542;13.440;2023-01-08T01:24:10;8.70;99.90
2054;DHT22;1032;52.542;13.440;2023-01-08T01:26:38;9.20;99.90
2054;DHT22;1032;52.542;13.440;2023-01-08T01:29:05;9.20;99.90
2054;DHT22;1032;52.542;13.440;2023-01-08T01:31:32;9.40;99.90
2054;DHT22;1032;52.542;13.440;2023-01-08T01:33:58;9.10;99.90
2054;DHT22;1032;52.542;13.440;2023-01-08T01:36:25;9.50;99.90
2054;DHT22;1032;52.542;13.440;2023-01-08T01:38:55;9.10;99.90
2054;DHT22;1032;52.542;13.440;2023-01-08T01:41:25;9.30;99.90
2054;DHT22;1032;52.542;13.440;2023-01-08T01:43:52;8.90;99.90
2054;DHT22;1032;52.542;13.440;2023-01-08T01:46:25;9.30;99.90
2054;DHT22;1032;52.542;13.440;2023-01-08T01:48:56;9.10;99.90
2054;DHT22;1032;52.542;13.440;2023-01-08T01:51:28;9.40;99.90
2054;DHT22;1032;52.542;13.440;2023-01-08T01:53:57;9.00;99.90
2054;DHT22;1032;52.542;13.440;2023-01-08T01:56:25;9.10;99.90
2054;DHT22;1032;52.542;13.440;2023-01-08T01:58:52;8.60;99.90
2054;DHT22;1032;52.542;13.440;2023-01-08T02:01:19;8.40;99.90
2054;DHT22;1032;52.542;13.440;2023-01-08T02:03:46;8.80;99.90
2054;DHT22;1032;52.542;13.440;2023-01-08T02:06:21;8.90;99.90
2054;DHT22;1032;52.542;13.440;2023-01-08T02:08:58;8.90;99.90
2054;DHT22;1032;52.542;13.440;2023-01-08T02:11:32;8.90;99.90
2054;DHT22;1032;52.542;13.440;2023-01-08T02:14:05;8.40;99.90
2054;DHT22;1032;52.542;13.440;2023-01-08T02:16:37;8.70;99.90
2054;DHT22;1032;52.542;13.440;2023-01-08T02:19:34;8.80;99.90
2054;DHT22;1032;52.542;13.440;2023-01-08T02:22:12;8.90;99.90
2054;DHT22;1032;52.542;13.440;2023-01-08T02:24:53;8.90;99.90
2054;DHT22;1032;52.542;13.440;2023-01-08T02:27:24;8.40;99.90
2054;DHT22;1032;52.542;13.440;2023-01-08T02:29:52;8.50;99.90
2054;DHT22;1032;52.542;13.440;2023-01-08T02:32:22;8.50;99.90
2054;DHT22;1032;52.542;13.440;2023-01-08T02:34:51;8.80;99.90
2054;DHT22;1032;52.542;13.440;2023-01-08T02:37:18;8.70;99.90
2054;DHT22;1032;52.542;13.440;2023-01-08T02:40:13;8.50;99.90
2054;DHT22;1032;52.542;13.440;2023-01-08T02:42:48;8.70;99.90
2054;DHT22;1032;52.542;13.440;2023-01-08T02:45:30;8.40;99.90
2054;DHT22;1032;52.542;13.440;2023-01-08T02:48:02;8.70;99.90
2054;DHT22;1032;52.542;13.440;2023-01-08T02:50:36;7.90;99.90
2054;DHT22;1032;52.542;13.440;2023-01-08T02:53:10;8.30;99.90
2054;DHT22;1032;52.542;13.440;2023-01-08T02:55:39;8.50;99.90
2054;DHT22;1032;52.542;13.440;2023-01-08T02:58:08;8.60;99.90
2054;DHT22;1032;52.542;13.440;2023-01-08T03:00:36;8.10;99.90
2054;DHT22;1032;52.542;13.440;2023-01-08T03:03:08;8.50;99.90
2054;DHT22;1032;52.542;13.440;2023-01-08T03:05:37;8.30;99.90
2054;DHT22;1032;52.542;13.440;2023-01-08T03:08:05;8.40;99.90
2054;DHT22;1032;52.542;13.440;2023-01-08T03:10:33;8.20;99.90
2054;DHT22;1032;52.542;13.440;2023-01-08T03:13:04;8.30;99.90
2054;DHT22;1032;52.542;13.440;2023-01-08T03:15:39;8.30;99.90
2054;DHT22;1032;52.542;13.440;2023-01-08T03:18:11;8.40;99.90
2054;DHT22;1032;52.542;13.440;2023-01-08T03:20:38;8.30;99.90
2054;DHT22;1032;52.542;13.440;2023-01-08T03:23:07;7.60;99.90
2054;DHT22;1032;52.542;13.440;2023-01-08T03:25:36;7.90;99.90
2054;DHT22;1032;52.542;13.440;2023-01-08T03:28:08;8.40;99.90
2054;DHT22;1032;52.542;13.440;2023-01-08T03:30:40;8.20;99.90
2054;DHT22;1032;52.542;13.440;2023-01-08T03:33:08;8.30;99.90
2054;DHT22;1032;52.542;13.440;2023-01-08T03:35:38;8.30;99.90
2054;DHT22;1032;52.542;13.440;2023-01-08T03:38:09;8.10;99.90
2054;DHT22;1032;52.542;13.440;2023-01-08T03:40:40;8.10;99.90
2054;DHT22;1032;52.542;13.440;2023-01-08T03:43:09;8.40;99.90
2054;DHT22;1032;52.542;13.440;2023-01-08T03:45:38;8.10;99.90
2054;DHT22;1032;52.542;13.440;2023-01-08T03:48:08;8.00;99.90
2054;DHT22;1032;52.542;13.440;2023-01-08T03:50:35;8.30;99.90
2054;DHT22;1032;52.542;13.440;2023-01-08T03:53:01;8.00;99.90
2054;DHT22;1032;52.542;13.440;2023-01-08T03:55:28;7.50;99.90
2054;DHT22;1032;52.542;13.440;2023-01-08T03:57:54;8.10;99.90
2054;DHT22;1032;52.542;13.440;2023-01-08T04:00:21;7.90;99.90
2054;DHT22;1032;52.542;13.440;2023-01-08T04:02:49;7.90;99.90
2054;DHT22;1032;52.542;13.440;2023-01-08T04:05:16;8.40;99.90
2054;DHT22;1032;52.542;13.440;2023-01-08T04:07:42;7.70;99.90
2054;DHT22;1032;52.542;13.440;2023-01-08T04:10:09;7.80;99.90
2054;DHT22;1032;52.542;13.440;2023-01-08T04:12:35;8.10;99.90
2054;DHT22;1032;52.542;13.440;2023-01-08T04:15:02;7.90;99.90
2054;DHT22;1032;52.542;13.440;2023-01-08T04:17:29;7.90;99.90
2054;DHT22;1032;52.542;13.440;2023-01-08T04:19:57;8.10;99.90
2054;DHT22;1032;52.542;13.440;2023-01-08T04:22:24;8.10;99.90
2054;DHT22;1032;52.542;13.440;2023-01-08T04:24:50;8.00;99.90
2054;DHT22;1032;52.542;13.440;2023-01-08T04:27:17;7.90;99.90
2054;DHT22;1032;52.542;13.440;2023-01-08T04:29:43;8.10;99.90
2054;DHT22;1032;52.542;13.440;2023-01-08T04:32:10;8.20;99.90
2054;DHT22;1032;52.542;13.440;2023-01-08T04:34:37;8.10;99.90
2054;DHT22;1032;52.542;13.440;2023-01-08T04:37:05;7.90;99.90
2054;DHT22;1032;52.542;13.440;2023-01-08T04:39:31;7.90;99.90
2054;DHT22;1032;52.542;13.440;2023-01-08T04:41:58;7.80;99.90
2054;DHT22;1032;52.542;13.440;2023-01-08T04:44:25;7.90;99.90
2054;DHT22;1032;52.542;13.440;2023-01-08T04:46:51;7.90;99.90
2054;DHT22;1032;52.542;13.440;2023-01-08T04:49:18;7.70;99.90
2054;DHT22;1032;52.542;13.440;2023-01-08T04:51:45;7.70;99.90
2054;DHT22;1032;52.542;13.440;2023-01-08T04:54:13;8.00;99.90
2054;DHT22;1032;52.542;13.440;2023-01-08T04:56:40;8.10;99.90
2054;DHT22;1032;52.542;13.440;2023-01-08T04:59:06;7.90;99.90
2054;DHT22;1032;52.542;13.440;2023-01-08T05:01:33;7.90;99.90
2054;DHT22;1032;52.542;13.440;2023-01-08T05:04:02;7.80;99.90
2054;DHT22;1032;52.542;13.440;2023-01-08T05:06:30;8.00;99.90
2054;DHT22;1032;52.542;13.440;2023-01-08T05:08:57;7.90;99.90
2054;DHT22;1032;52.542;13.440;2023-01-08T05:11:25;8.00;99.90
2054;DHT22;1032;52.542;13.440;2023-01-08T05:13:52;7.80;99.90
2054;DHT22;1032;52.542;13.440;2023-01-08T05:16:19;7.90;99.90
2054;DHT22;1032;52.542;13.440;2023-01-08T05:18:46;7.80;99.90
2054;DHT22;1032;52.542;13.440;2023-01-08T05:21:13;8.10;99.90
2054;DHT22;1032;52.542;13.440;2023-01-08T05:23:42;8.00;99.90
2054;DHT22;1032;52.542;13.440;2023-01-08T05:26:09;8.00;99.90
2054;DHT22;1032;52.542;13.440;2023-01-08T05:28:37;7.90;99.90
2054;DHT22;1032;52.542;13.440;2023-01-08T05:31:04;8.00;99.90
2054;DHT22;1032;52.542;13.440;2023-01-08T05:33:31;8.10;99.90
2054;DHT22;1032;52.542;13.440;2023-01-08T05:35:57;7.90;99.90
2054;DHT22;1032;52.542;13.440;2023-01-08T05:38:24;7.80;99.90
2054;DHT22;1032;52.542;13.440;2023-01-08T05:40:51;8.30;99.90
2054;DHT22;1032;52.542;13.440;2023-01-08T05:43:18;7.90;99.90
2054;DHT22;1032;52.542;13.440;2023-01-08T05:45:46;8.00;99.90
2054;DHT22;1032;52.542;13.440;2023-01-08T05:48:12;8.30;99.90
2054;DHT22;1032;52.542;13.440;2023-01-08T05:50:39;8.00;99.90
2054;DHT22;1032;52.542;13.440;2023-01-08T05:53:06;8.20;99.90
2054;DHT22;1032;52.542;13.440;2023-01-08T05:55:33;8.00;99.90
2054;DHT22;1032;52.542;13.440;2023-01-08T05:58:00;8.10;99.90
2054;DHT22;1032;52.542;13.440;2023-01-08T06:00:27;8.10;99.90
2054;DHT22;1032;52.542;13.440;2023-01-08T06:02:54;8.40;99.90
2054;DHT22;1032;52.542;13.440;2023-01-08T06:05:21;8.30;99.90
2054;DHT22;1032;52.542;13.440;2023-01-08T06:07:48;8.30;99.90
2054;DHT22;1032;52.542;13.440;2023-01-08T06:10:15;8.50;99.90
2054;DHT22;1032;52.542;13.440;2023-01-08T06:12:41;8.40;99.90
2054;DHT22;1032;52.542;13.440;2023-01-08T06:15:09;8.40;99.90
2054;DHT22;1032;52.542;13.440;2023-01-08T06:17:36;8.60;99.90
2054;DHT22;1032;52.542;13.440;2023-01-08T06:20:05;8.40;99.90
2054;DHT22;1032;52.542;13.440;2023-01-08T06:22:32;8.70;99.90
2054;DHT22;1032;52.542;13.440;2023-01-08T06:24:58;8.70;99.90
2054;DHT22;1032;52.542;13.440;2023-01-08T06:27:25;8.50;99.90
2054;DHT22;1032;52.542;13.440;2023-01-08T06:29:51;8.90;99.90
2054;DHT22;1032;52.542;13.440;2023-01-08T06:32:18;8.40;99.90
2054;DHT22;1032;52.542;13.440;2023-01-08T06:34:45;8.80;99.90
2054;DHT22;1032;52.542;13.440;2023-01-08T06:37:13;8.40;99.90
2054;DHT22;1032;52.542;13.440;2023-01-08T06:39:39;8.50;99.90
2054;DHT22;1032;52.542;13.440;2023-01-08T06:42:06;8.80;99.90
2054;DHT22;1032;52.542;13.440;2023-01-08T06:44:33;8.60;99.90
2054;DHT22;1032;52.542;13.440;2023-01-08T06:46:59;8.70;99.90
2054;DHT22;1032;52.542;13.440;2023-01-08T06:49:26;8.00;99.90
2054;DHT22;1032;52.542;13.440;2023-01-08T06:51:52;8.70;99.90
2054;DHT22;1032;52.542;13.440;2023-01-08T06:54:20;8.70;99.90
2054;DHT22;1032;52.542;13.440;2023-01-08T06:56:47;8.50;99.90
2054;DHT22;1032;52.542;13.440;2023-01-08T06:59:14;8.60;99.90
2054;DHT22;1032;52.542;13.440;2023-01-08T07:01:40;8.60;99.90
2054;DHT22;1032;52.542;13.440;2023-01-08T07:04:07;8.60;99.90
2054;DHT22;1032;52.542;13.440;2023-01-08T07:06:34;8.80;99.90
2054;DHT22;1032;52.542;13.440;2023-01-08T07:09:01;8.80;99.90
2054;DHT22;1032;52.542;13.440;2023-01-08T07:11:29;8.60;99.90
2054;DHT22;1032;52.542;13.440;2023-01-08T07:13:55;8.80;99.90
2054;DHT22;1032;52.542;13.440;2023-01-08T07:16:22;8.70;99.90
2054;DHT22;1032;52.542;13.440;2023-01-08T07:18:48;8.90;99.90
2054;DHT22;1032;52.542;13.440;2023-01-08T07:21:15;8.70;99.90
2054;DHT22;1032;52.542;13.440;2023-01-08T07:23:41;8.20;99.90
2054;DHT22;1032;52.542;13.440;2023-01-08T07:26:09;8.90;99.90
2054;DHT22;1032;52.542;13.440;2023-01-08T07:28:37;8.80;99.90
2054;DHT22;1032;52.542;13.440;2023-01-08T07:31:05;8.80;99.90
2054;DHT22;1032;52.542;13.440;2023-01-08T07:33:32;9.00;99.90
2054;DHT22;1032;52.542;13.440;2023-01-08T07:35:58;8.80;99.90
2054;DHT22;1032;52.542;13.440;2023-01-08T07:38:25;9.00;99.90
2054;DHT22;1032;52.542;13.440;2023-01-08T07:40:52;8.80;99.90
2054;DHT22;1032;52.542;13.440;2023-01-08T07:43:19;8.90;99.90
2054;DHT22;1032;52.542;13.440;2023-01-08T07:45:47;8.90;99.90
2054;DHT22;1032;52.542;13.440;2023-01-08T07:48:13;9.20;99.90
2054;DHT22;1032;52.542;13.440;2023-01-08T07:50:41;9.40;99.90
2054;DHT22;1032;52.542;13.440;2023-01-08T07:53:08;8.90;99.90
2054;DHT22;1032;52.542;13.440;2023-01-08T07:55:35;9.10;99.90
2054;DHT22;1032;52.542;13.440;2023-01-08T07:58:06;9.30;99.90
2054;DHT22;1032;52.542;13.440;2023-01-08T08:00:34;9.20;99.90
2054;DHT22;1032;52.542;13.440;2023-01-08T08:03:03;8.70;99.90
2054;DHT22;1032;52.542;13.440;2023-01-08T08:05:31;8.90;99.90
2054;DHT22;1032;52.542;13.440;2023-01-08T08:07:58;8.70;99.90
2054;DHT22;1032;52.542;13.440;2023-01-08T08:10:24;9.20;99.90
2054;DHT22;1032;52.542;13.440;2023-01-08T08:12:51;9.20;99.90
2054;DHT22;1032;52.542;13.440;2023-01-08T08:15:17;9.10;99.90
2054;DHT22;1032;52.542;13.440;2023-01-08T08:17:44;9.40;99.90
2054;DHT22;1032;52.542;13.440;2023-01-08T08:20:13;9.10;99.90
2054;DHT22;1032;52.542;13.440;2023-01-08T08:22:40;9.40;99.90
2054;DHT22;1032;52.542;13.440;2023-01-08T08:25:07;8.60;99.90
2054;DHT22;1032;52.542;13.440;2023-01-08T08:27:34;9.30;99.90
2054;DHT22;1032;52.542;13.440;2023-01-08T08:30:01;9.00;99.90
2054;DHT22;1032;52.542;13.440;2023-01-08T08:32:28;9.20;99.90
2054;DHT22;1032;52.542;13.440;2023-01-08T08:34:55;9.30;99.90
2054;DHT22;1032;52.542;13.440;2023-01-08T08:37:23;9.50;99.90
2054;DHT22;1032;52.542;13.440;2023-01-08T08:39:49;9.20;99.90
2054;DHT22;1032;52.542;13.440;2023-01-08T08:42:16;9.00;99.90
2054;DHT22;1032;52.542;13.440;2023-01-08T08:44:43;9.00;99.90
2054;DHT22;1032;52.542;13.440;2023-01-08T08:47:10;8.90;99.90
2054;DHT22;1032;52.542;13.440;2023-01-08T08:49:37;9.40;99.90
2054;DHT22;1032;52.542;13.440;2023-01-08T08:52:04;9.40;99.90
2054;DHT22;1032;52.542;13.440;2023-01-08T08:54:32;9.30;99.90
2054;DHT22;1032;52.542;13.440;2023-01-08T08:56:58;9.30;99.90
2054;DHT22;1032;52.542;13.440;2023-01-08T08:59:25;9.60;99.90
2054;DHT22;1032;52.542;13.440;2023-01-08T09:01:52;9.30;99.90
2054;DHT22;1032;52.542;13.440;2023-01-08T09:04:18;9.60;99.90
2054;DHT22;1032;52.542;13.440;2023-01-08T09:06:45;9.70;99.90
2054;DHT22;1032;52.542;13.440;2023-01-08T09:09:11;9.60;99.90
2054;DHT22;1032;52.542;13.440;2023-01-08T09:11:41;9.40;99.90
2054;DHT22;1032;52.542;13.440;2023-01-08T09:14:08;9.60;99.90
2054;DHT22;1032;52.542;13.440;2023-01-08T09:16:35;9.60;99.90
2054;DHT22;1032;52.542;13.440;2023-01-08T09:19:02;9.50;99.90
2054;DHT22;1032;52.542;13.440;2023-01-08T09:21:28;9.50;99.90
2054;DHT22;1032;52.542;13.440;2023-01-08T09:23:55;9.70;99.90
2054;DHT22;1032;52.542;13.440;2023-01-08T09:26:21;9.50;99.90
2054;DHT22;1032;52.542;13.440;2023-01-08T09:28:49;9.70;99.90
2054;DHT22;1032;52.542;13.440;2023-01-08T09:31:16;9.80;99.90
2054;DHT22;1032;52.542;13.440;2023-01-08T09:33:42;9.90;99.90
2054;DHT22;1032;52.542;13.440;2023-01-08T09:36:10;9.60;99.90
2054;DHT22;1032;52.542;13.440;2023-01-08T09:38:37;9.90;99.90
2054;DHT22;1032;52.542;13.440;2023-01-08T09:41:06;9.80;99.90
2054;DHT22;1032;52.542;13.440;2023-01-08T09:43:36;9.70;99.90
2054;DHT22;1032;52.542;13.440;2023-01-08T09:46:06;9.80;99.90
2054;DHT22;1032;52.542;13.440;2023-01-08T09:48:35;9.80;99.90
2054;DHT22;1032;52.542;13.440;2023-01-08T09:51:03;9.90;99.90
2054;DHT22;1032;52.542;13.440;2023-01-08T09:53:31;9.80;99.90
2054;DHT22;1032;52.542;13.440;2023-01-08T09:56:00;9.80;99.90
2054;DHT22;1032;52.542;13.440;2023-01-08T09:58:33;10.00;99.90
2054;DHT22;1032;52.542;13.440;2023-01-08T10:01:01;10.20;99.90
2054;DHT22;1032;52.542;13.440;2023-01-08T10:03:36;9.70;99.90
2054;DHT22;1032;52.542;13.440;2023-01-08T10:06:07;10.00;99.90
2054;DHT22;1032;52.542;13.440;2023-01-08T10:08:34;9.80;99.90
2054;DHT22;1032;52.542;13.440;2023-01-08T10:11:02;9.30;99.90
2054;DHT22;1032;52.542;13.440;2023-01-08T10:13:29;10.00;99.90
2054;DHT22;1032;52.542;13.440;2023-01-08T10:15:55;9.50;99.90
2054;DHT22;1032;52.542;13.440;2023-01-08T10:18:25;9.70;99.90
2054;DHT22;1032;52.542;13.440;2023-01-08T10:20:53;9.90;99.90
2054;DHT22;1032;52.542;13.440;2023-01-08T10:23:20;9.80;99.90
2054;DHT22;1032;52.542;13.440;2023-01-08T10:25:50;10.30;99.90
2054;DHT22;1032;52.542;13.440;2023-01-08T10:28:20;9.70;99.90
2054;DHT22;1032;52.542;13.440;2023-01-08T10:30:47;10.00;99.90
2054;DHT22;1032;52.542;13.440;2023-01-08T10:33:17;10.20;99.90
2054;DHT22;1032;52.542;13.440;2023-01-08T10:35:51;10.00;99.90
2054;DHT22;1032;52.542;13.440;2023-01-08T10:38:29;9.70;99.90
2054;DHT22;1032;52.542;13.440;2023-01-08T10:40:57;9.90;99.90
2054;DHT22;1032;52.542;13.440;2023-01-08T10:43:27;10.10;99.90
2054;DHT22;1032;52.542;13.440;2023-01-08T10:45:57;10.30;99.90
2054;DHT22;1032;52.542;13.440;2023-01-08T10:48:28;9.90;99.90
2054;DHT22;1032;52.542;13.440;2023-01-08T10:51:03;9.90;99.90
2054;DHT22;1032;52.542;13.440;2023-01-08T10:53:31;10.20;99.90
2054;DHT22;1032;52.542;13.440;2023-01-08T10:56:00;9.70;99.90
2054;DHT22;1032;52.542;13.440;2023-01-08T10:58:28;9.80;99.90
2054;DHT22;1032;52.542;13.440;2023-01-08T11:01:07;9.60;99.90
2054;DHT22;1032;52.542;13.440;2023-01-08T11:03:35;10.30;99.90
2054;DHT22;1032;52.542;13.440;2023-01-08T11:06:09;9.80;99.90
2054;DHT22;1032;52.542;13.440;2023-01-08T11:08:38;9.70;99.90
2054;DHT22;1032;52.542;13.440;2023-01-08T11:11:06;9.90;99.90
2054;DHT22;1032;52.542;13.440;2023-01-08T11:13:33;10.00;99.90
2054;DHT22;1032;52.542;13.440;2023-01-08T11:16:02;9.80;99.90
2054;DHT22;1032;52.542;13.440;2023-01-08T11:18:29;10.00;99.90
2054;DHT22;1032;52.542;13.440;2023-01-08T11:21:06;10.20;99.90
2054;DHT22;1032;52.542;13.440;2023-01-08T11:23:33;9.80;99.90
2054;DHT22;1032;52.542;13.440;2023-01-08T11:26:07;10.30;99.90
2054;DHT22;1032;52.542;13.440;2023-01-08T11:28:46;10.10;99.90
2054;DHT22;1032;52.542;13.440;2023-01-08T11:31:20;10.50;99.90
2054;DHT22;1032;52.542;13.440;2023-01-08T11:33:51;10.60;99.90
2054;DHT22;1032;52.542;13.440;2023-01-08T11:36:24;10.30;99.90
2054;DHT22;1032;52.542;13.440;2023-01-08T11:38:53;10.50;99.90
2054;DHT22;1032;52.542;13.440;2023-01-08T11:41:37;10.20;99.90
2054;DHT22;1032;52.542;13.440;2023-01-08T11:44:19;10.20;99.90
2054;DHT22;1032;52.542;13.440;2023-01-08T11:46:59;10.20;99.90
2054;DHT22;1032;52.542;13.440;2023-01-08T11:49:55;10.30;99.90
2054;DHT22;1032;52.542;13.440;2023-01-08T11:52:34;10.30;99.90
2054;DHT22;1032;52.542;13.440;2023-01-08T11:55:15;10.40;99.90
2054;DHT22;1032;52.542;13.440;2023-01-08T11:57:58;10.10;99.90
2054;DHT22;1032;52.542;13.440;2023-01-08T12:00:37;10.30;99.90
2054;DHT22;1032;52.542;13.440;2023-01-08T12:03:13;10.30;99.90
2054;DHT22;1032;52.542;13.440;2023-01-08T12:05:44;10.60;99.90
2054;DHT22;1032;52.542;13.440;2023-01-08T12:08:18;10.20;99.90
2054;DHT22;1032;52.542;13.440;2023-01-08T12:10:55;10.40;99.90
2054;DHT22;1032;52.542;13.440;2023-01-08T12:13:38;10.80;99.90
2054;DHT22;1032;52.542;13.440;2023-01-08T12:16:17;10.60;99.90
2054;DHT22;1032;52.542;13.440;2023-01-08T12:19:04;10.40;99.90
2054;DHT22;1032;52.542;13.440;2023-01-08T12:21:39;10.50;99.90
2054;DHT22;1032;52.542;13.440;2023-01-08T12:24:21;10.80;99.90
2054;DHT22;1032;52.542;13.440;2023-01-08T12:26:56;10.40;99.90
2054;DHT22;1032;52.542;13.440;2023-01-08T12:29:52;10.30;99.90
2054;DHT22;1032;52.542;13.440;2023-01-08T12:32:29;10.40;99.90
2054;DHT22;1032;52.542;13.440;2023-01-08T12:35:04;10.50;99.90
2054;DHT22;1032;52.542;13.440;2023-01-08T12:37:40;10.70;99.90
2054;DHT22;1032;52.542;13.440;2023-01-08T12:40:13;10.50;99.90
2054;DHT22;1032;52.542;13.440;2023-01-08T12:42:42;10.40;99.90
2054;DHT22;1032;52.542;13.440;2023-01-08T12:45:16;10.50;99.90
2054;DHT22;1032;52.542;13.440;2023-01-08T12:47:48;10.30;99.90
2054;DHT22;1032;52.542;13.440;2023-01-08T12:50:31;10.70;99.90
2054;DHT22;1032;52.542;13.440;2023-01-08T12:53:05;11.00;99.90
2054;DHT22;1032;52.542;13.440;2023-01-08T12:55:43;10.40;99.90
2054;DHT22;1032;52.542;13.440;2023-01-08T12:58:19;9.90;99.90
2054;DHT22;1032;52.542;13.440;2023-01-08T13:00:56;10.40;99.90
2054;DHT22;1032;52.542;13.440;2023-01-08T13:03:27;10.40;99.90
2054;DHT22;1032;52.542;13.440;2023-01-08T13:06:06;10.40;99.90
2054;DHT22;1032;52.542;13.440;2023-01-08T13:08:34;10.20;99.90
2054;DHT22;1032;52.542;13.440;2023-01-08T13:11:01;10.30;99.90
2054;DHT22;1032;52.542;13.440;2023-01-08T13:13:29;10.80;99.90
2054;DHT22;1032;52.542;13.440;2023-01-08T13:16:18;10.40;99.90
2054;DHT22;1032;52.542;13.440;2023-01-08T13:18:53;10.30;99.90
2054;DHT22;1032;52.542;13.440;2023-01-08T13:21:31;10.40;99.90
2054;DHT22;1032;52.542;13.440;2023-01-08T13:24:06;10.50;99.90
2054;DHT22;1032;52.542;13.440;2023-01-08T13:26:34;10.30;99.90
2054;DHT22;1032;52.542;13.440;2023-01-08T13:29:34;10.60;99.90
2054;DHT22;1032;52.542;13.440;2023-01-08T13:32:03;10.70;99.90
2054;DHT22;1032;52.542;13.440;2023-01-08T13:34:37;10.40;99.90
2054;DHT22;1032;52.542;13.440;2023-01-08T13:37:04;10.10;99.90
2054;DHT22;1032;52.542;13.440;2023-01-08T13:39:34;10.90;99.90
2054;DHT22;1032;52.542;13.440;2023-01-08T13:42:18;10.70;99.90
2054;DHT22;1032;52.542;13.440;2023-01-08T13:44:48;10.40;99.90
2054;DHT22;1032;52.542;13.440;2023-01-08T13:47:21;10.20;99.90
2054;DHT22;1032;52.542;13.440;2023-01-08T13:49:50;10.70;99.90
2054;DHT22;1032;52.542;13.440;2023-01-08T13:52:42;9.90;99.90
2054;DHT22;1032;52.542;13.440;2023-01-08T13:55:15;10.40;99.90
2054;DHT22;1032;52.542;13.440;2023-01-08T13:57:45;10.30;99.90
2054;DHT22;1032;52.542;13.440;2023-01-08T14:00:20;10.40;99.90
2054;DHT22;1032;52.542;13.440;2023-01-08T14:02:49;10.40;99.90
2054;DHT22;1032;52.542;13.440;2023-01-08T14:05:26;10.00;99.90
2054;DHT22;1032;52.542;13.440;2023-01-08T14:07:54;10.70;99.90
2054;DHT22;1032;52.542;13.440;2023-01-08T14:10:21;10.30;99.90
2054;DHT22;1032;52.542;13.440;2023-01-08T14:12:48;10.20;99.90
2054;DHT22;1032;52.542;13.440;2023-01-08T14:15:20;10.30;99.90
2054;DHT22;1032;52.542;13.440;2023-01-08T14:17:49;10.40;99.90
2054;DHT22;1032;52.542;13.440;2023-01-08T14:20:23;10.40;99.90
2054;DHT22;1032;52.542;13.440;2023-01-08T14:22:54;10.60;99.90
2054;DHT22;1032;52.542;13.440;2023-01-08T14:25:21;10.20;99.90
2054;DHT22;1032;52.542;13.440;2023-01-08T14:27:56;10.10;99.90
2054;DHT22;1032;52.542;13.440;2023-01-08T14:30:24;10.30;99.90
2054;DHT22;1032;52.542;13.440;2023-01-08T14:32:53;10.40;99.90
2054;DHT22;1032;52.542;13.440;2023-01-08T14:35:25;10.20;99.90
2054;DHT22;1032;52.542;13.440;2023-01-08T14:37:53;10.30;99.90
2054;DHT22;1032;52.542;13.440;2023-01-08T14:40:27;10.50;99.90
2054;DHT22;1032;52.542;13.440;2023-01-08T14:42:54;10.60;99.90
2054;DHT22;1032;52.542;13.440;2023-01-08T14:45:23;9.90;99.90
2054;DHT22;1032;52.542;13.440;2023-01-08T14:47:54;10.00;99.90
2054;DHT22;1032;52.542;13.440;2023-01-08T14:50:25;9.70;99.90
2054;DHT22;1032;52.542;13.440;2023-01-08T14:52:55;10.10;99.90
2054;DHT22;1032;52.542;13.440;2023-01-08T14:55:23;9.90;99.90
2054;DHT22;1032;52.542;13.440;2023-01-08T14:57:52;10.00;99.90
2054;DHT22;1032;52.542;13.440;2023-01-08T15:00:22;10.60;99.90
2054;DHT22;1032;52.542;13.440;2023-01-08T15:02:50;10.00;99.90
2054;DHT22;1032;52.542;13.440;2023-01-08T15:05:23;10.50;99.90
2054;DHT22;1032;52.542;13.440;2023-01-08T15:07:57;10.10;99.90
2054;DHT22;1032;52.542;13.440;2023-01-08T15:10:39;10.10;99.90
2054;DHT22;1032;52.542;13.440;2023-01-08T15:13:06;9.90;99.90
2054;DHT22;1032;52.542;13.440;2023-01-08T15:15:51;10.10;99.90
2054;DHT22;1032;52.542;13.440;2023-01-08T15:18:19;10.10;99.90
2054;DHT22;1032;52.542;13.440;2023-01-08T15:20:47;10.50;99.90
2054;DHT22;1032;52.542;13.440;2023-01-08T15:23:24;9.90;99.90
2054;DHT22;1032;52.542;13.440;2023-01-08T15:25:53;10.00;99.90
2054;DHT22;1032;52.542;13.440;2023-01-08T15:28:20;10.10;99.90
2054;DHT22;1032;52.542;13.440;2023-01-08T15:30:48;10.00;99.90
2054;DHT22;1032;52.542;13.440;2023-01-08T15:33:18;10.10;99.90
2054;DHT22;1032;52.542;13.440;2023-01-08T15:35:47;10.20;99.90
2054;DHT22;1032;52.542;13.440;2023-01-08T15:38:14;10.00;99.90
2054;DHT22;1032;52.542;13.440;2023-01-08T15:40:41;9.90;99.90
2054;DHT22;1032;52.542;13.440;2023-01-08T15:43:10;9.90;99.90
2054;DHT22;1032;52.542;13.440;2023-01-08T15:45:38;9.80;99.90
2054;DHT22;1032;52.542;13.440;2023-01-08T15:48:07;10.30;99.90
2054;DHT22;1032;52.542;13.440;2023-01-08T15:50:34;9.70;99.90
2054;DHT22;1032;52.542;13.440;2023-01-08T15:53:09;9.90;99.90
2054;DHT22;1032;52.542;13.440;2023-01-08T15:55:38;9.80;99.90
2054;DHT22;1032;52.542;13.440;2023-01-08T15:58:08;9.80;99.90
2054;DHT22;1032;52.542;13.440;2023-01-08T16:00:35;9.70;99.90
2054;DHT22;1032;52.542;13.440;2023-01-08T16:03:03;9.80;99.90
2054;DHT22;1032;52.542;13.440;2023-01-08T16:05:31;9.80;99.90
2054;DHT22;1032;52.542;13.440;2023-01-08T16:07:58;9.40;99.90
2054;DHT22;1032;52.542;13.440;2023-01-08T16:10:26;10.40;99.90
2054;DHT22;1032;52.542;13.440;2023-01-08T16:12:53;9.80;99.90